createdAt,value
2022-09-17T00:01:30.727Z,6.9
2022-09-17T00:02:46.032Z,5.9
2022-09-17T00:04:02.331Z,5.8
2022-09-17T00:05:17.636Z,5.4
2022-09-17T00:06:32.958Z,6.6
2022-09-17T00:07:49.261Z,7
2022-09-17T00:09:05.543Z,6.8
2022-09-17T00:10:21.839Z,6.1
2022-09-17T00:11:38.138Z,6.1
2022-09-17T00:12:54.419Z,5.5
2022-09-17T00:14:10.713Z,6
2022-09-17T00:15:27.016Z,5.1
2022-09-17T00:16:43.309Z,6.4
2022-09-17T00:17:59.602Z,6.8
2022-09-17T00:19:14.928Z,6.1
2022-09-17T00:20:31.210Z,5.6
2022-09-17T00:21:47.506Z,6.3
2022-09-17T00:23:02.824Z,7
2022-09-17T00:24:19.108Z,6.9
2022-09-17T00:25:35.408Z,6.7
2022-09-17T00:26:51.709Z,5.6
2022-09-17T00:28:07.984Z,6.2
2022-09-17T00:29:24.296Z,5.3
2022-09-17T00:30:40.589Z,5.4
2022-09-17T00:31:56.887Z,5.7
2022-09-17T00:33:12.193Z,8.1
2022-09-17T00:34:28.492Z,6.6
2022-09-17T00:35:43.786Z,6.6
2022-09-17T00:37:00.094Z,5.9
2022-09-17T00:38:16.392Z,5.1
2022-09-17T00:39:32.682Z,6.8
2022-09-17T00:40:48.982Z,5.7
2022-09-17T00:42:05.262Z,4.7
2022-09-17T00:43:21.570Z,7.2
2022-09-17T00:44:37.860Z,6.1
2022-09-17T00:45:54.141Z,6.7
2022-09-17T00:47:10.446Z,5.2
2022-09-17T00:48:26.739Z,6.9
2022-09-17T00:49:43.026Z,6.3
2022-09-17T00:50:59.315Z,7.3
2022-09-17T00:53:30.929Z,5.4
2022-09-17T00:54:47.231Z,6.9
2022-09-17T00:56:03.509Z,6.9
2022-09-17T00:57:19.806Z,7.7
2022-09-17T00:58:36.106Z,7
2022-09-17T00:59:52.412Z,7.9
2022-09-17T01:01:08.701Z,7.1
2022-09-17T01:02:24.995Z,7.1
2022-09-17T01:03:41.279Z,7.7
2022-09-17T01:04:57.573Z,6.3
2022-09-17T01:06:13.874Z,6.4
2022-09-17T01:07:30.164Z,6.9
2022-09-17T01:08:45.473Z,6.1
2022-09-17T01:10:01.774Z,6.9
2022-09-17T01:11:18.074Z,5.2
2022-09-17T01:12:34.363Z,6.6
2022-09-17T01:13:50.650Z,6
2022-09-17T01:15:06.943Z,5.8
2022-09-17T01:16:23.235Z,6.3
2022-09-17T01:17:39.535Z,6.2
2022-09-17T01:18:55.832Z,7
2022-09-17T01:20:12.135Z,5.7
2022-09-17T01:21:28.414Z,6.1
2022-09-17T01:22:44.725Z,5.6
2022-09-17T01:24:01.007Z,6.8
2022-09-17T01:25:17.301Z,5.2
2022-09-17T01:26:32.618Z,6
2022-09-17T01:27:48.916Z,6.8
2022-09-17T01:29:05.209Z,5.8
2022-09-17T01:31:37.788Z,6.7
2022-09-17T01:32:54.088Z,7.4
2022-09-17T01:34:10.374Z,4.8
2022-09-17T01:35:26.668Z,6.7
2022-09-17T01:36:42.967Z,7
2022-09-17T01:37:59.252Z,6.4
2022-09-17T01:39:15.558Z,6.1
2022-09-17T01:40:31.857Z,4.6
2022-09-17T01:41:48.149Z,5.4
2022-09-17T01:43:03.445Z,5.9
2022-09-17T01:44:19.757Z,6.3
2022-09-17T01:45:36.042Z,5
2022-09-17T01:46:52.328Z,5.5
2022-09-17T01:50:41.211Z,6.1
2022-09-17T01:51:56.526Z,5.7
2022-09-17T01:53:11.854Z,5.8
2022-09-17T01:54:28.142Z,4.7
2022-09-17T01:55:44.429Z,5.4
2022-09-17T01:57:00.722Z,6.2
2022-09-17T01:58:17.028Z,6.5
2022-09-17T01:59:33.315Z,5.4
2022-09-17T02:02:05.903Z,5.4
2022-09-17T02:03:22.209Z,4.9
2022-09-17T02:04:38.490Z,6.5
2022-09-17T02:05:54.798Z,4.4
2022-09-17T02:07:11.076Z,4.8
2022-09-17T02:08:27.380Z,5.4
2022-09-17T02:09:43.682Z,5.5
2022-09-17T02:10:58.979Z,5.6
2022-09-17T02:12:15.280Z,5.8
2022-09-17T02:13:31.566Z,5.8
2022-09-17T02:14:47.859Z,5.6
2022-09-17T02:16:04.155Z,5
2022-09-17T02:17:20.458Z,4.7
2022-09-17T02:18:36.739Z,7
2022-09-17T02:19:52.053Z,6
2022-09-17T02:21:07.361Z,4.7
2022-09-17T02:22:23.669Z,5.2
2022-09-17T02:23:39.960Z,5.1
2022-09-17T02:24:56.264Z,4.2
2022-09-17T02:26:12.557Z,5.4
2022-09-17T02:27:28.837Z,5.4
2022-09-17T02:28:45.140Z,4.4
2022-09-17T02:30:01.437Z,4.1
2022-09-17T02:31:17.716Z,6.3
2022-09-17T02:32:34.013Z,4.6
2022-09-17T02:33:50.311Z,4.7
2022-09-17T02:35:06.613Z,4.5
2022-09-17T02:36:22.898Z,4.3
2022-09-17T02:37:39.199Z,5.4
2022-09-17T02:38:55.490Z,5.2
2022-09-17T02:40:10.809Z,4.5
2022-09-17T02:41:27.093Z,4.6
2022-09-17T02:42:43.393Z,5.1
2022-09-17T02:43:59.682Z,4
2022-09-17T02:45:15.972Z,5.7
2022-09-17T02:46:32.000Z,5.4
2022-09-17T02:47:48.565Z,3.2
2022-09-17T02:49:04.854Z,4.7
2022-09-17T02:50:21.158Z,4.4
2022-09-17T02:51:37.442Z,4.4
2022-09-17T02:54:10.032Z,5
2022-09-17T02:55:26.327Z,4.7
2022-09-17T02:56:41.643Z,4.2
2022-09-17T02:57:57.937Z,5.5
2022-09-17T02:59:14.225Z,6.3
2022-09-17T03:00:30.528Z,5.8
2022-09-17T03:01:46.825Z,6.1
2022-09-17T03:03:03.121Z,5.5
2022-09-17T03:04:19.395Z,4.5
2022-09-17T03:05:35.687Z,6.2
2022-09-17T03:06:51.998Z,4.5
2022-09-17T03:08:08.296Z,5.1
2022-09-17T03:09:24.579Z,5.5
2022-09-17T03:10:40.882Z,5.1
2022-09-17T03:11:57.164Z,4.4
2022-09-17T03:13:12.474Z,6
2022-09-17T03:14:28.765Z,6.3
2022-09-17T03:15:45.070Z,4.2
2022-09-17T03:17:01.362Z,4.7
2022-09-17T03:19:33.951Z,4.5
2022-09-17T03:20:50.244Z,5.1
2022-09-17T03:22:06.537Z,6.1
2022-09-17T03:23:22.831Z,4.7
2022-09-17T03:24:39.134Z,6.2
2022-09-17T03:25:55.420Z,5
2022-09-17T03:27:11.709Z,4.6
2022-09-17T03:28:28.001Z,5.3
2022-09-17T03:29:43.327Z,6.3
2022-09-17T03:32:15.914Z,4.8
2022-09-17T03:33:32.202Z,4.6
2022-09-17T03:34:48.492Z,4.5
2022-09-17T03:36:04.788Z,3.3
2022-09-17T03:37:21.092Z,3.8
2022-09-17T03:38:37.383Z,4.8
2022-09-17T03:39:53.681Z,4.6
2022-09-17T03:41:09.969Z,3.8
2022-09-17T03:42:26.255Z,4.1
2022-09-17T03:43:42.562Z,3.8
2022-09-17T03:44:58.847Z,3.4
2022-09-17T03:46:15.149Z,4.4
2022-09-17T03:48:46.737Z,5.8
2022-09-17T03:50:03.000Z,6.8
2022-09-17T03:51:19.337Z,4.9
2022-09-17T03:52:35.625Z,6.1
2022-09-17T03:53:51.923Z,4.9
2022-09-17T03:56:24.506Z,7.2
2022-09-17T03:57:39.834Z,7.3
2022-09-17T03:58:55.139Z,5.7
2022-09-17T04:00:11.436Z,7.1
2022-09-17T04:01:27.726Z,5.7
2022-09-17T04:02:44.016Z,6.9
2022-09-17T04:04:00.305Z,5.1
2022-09-17T04:05:16.608Z,6.8
2022-09-17T04:06:32.896Z,6.5
2022-09-17T04:07:49.197Z,9.2
2022-09-17T04:09:05.482Z,7
2022-09-17T04:11:38.084Z,7.3
2022-09-17T04:12:54.375Z,6.4
2022-09-17T04:14:10.604Z,5.8
2022-09-17T04:15:25.920Z,7.3
2022-09-17T04:16:42.211Z,6.6
2022-09-17T04:17:57.533Z,6.1
2022-09-17T04:19:13.778Z,8.3
2022-09-17T04:21:46.277Z,8.7
2022-09-17T04:23:01.573Z,7.8
2022-09-17T04:24:16.903Z,7.6
2022-09-17T04:25:33.152Z,9.3
2022-09-17T04:26:49.448Z,8.6
2022-09-17T04:28:05.744Z,9.2
2022-09-17T04:29:21.987Z,8
2022-09-17T04:30:38.237Z,10.3
2022-09-17T04:31:54.458Z,8.8
2022-09-17T04:33:10.715Z,10.9
2022-09-17T04:34:26.940Z,8.8
2022-09-17T04:35:43.195Z,9.5
2022-09-17T04:36:58.447Z,9.7
2022-09-17T04:38:13.710Z,9.4
2022-09-17T04:39:29.943Z,10.7
2022-09-17T04:40:46.182Z,8.7
2022-09-17T04:42:02.406Z,9.3
2022-09-17T04:43:18.650Z,8
2022-09-17T04:44:34.901Z,7.9
2022-09-17T04:45:51.127Z,8.2
2022-09-17T04:47:07.376Z,9.8
2022-09-17T04:48:23.604Z,7.8
2022-09-17T04:49:39.854Z,8.2
2022-09-17T04:50:55.120Z,8.8
2022-09-17T04:52:10.368Z,9.6
2022-09-17T04:53:26.608Z,9.2
2022-09-17T04:54:42.841Z,9
2022-09-17T04:57:15.321Z,9.3
2022-09-17T04:58:31.560Z,11
2022-09-17T04:59:47.813Z,10.6
2022-09-17T05:01:04.052Z,9.7
2022-09-17T05:02:20.292Z,9.4
2022-09-17T05:03:36.540Z,10.1
2022-09-17T05:04:52.763Z,10.9
2022-09-17T05:06:09.018Z,10.7
2022-09-17T05:07:25.252Z,11.5
2022-09-17T05:08:40.506Z,10.9
2022-09-17T05:09:56.758Z,10.3
2022-09-17T05:11:12.995Z,8.5
2022-09-17T05:12:29.233Z,8.4
2022-09-17T05:13:45.464Z,8.8
2022-09-17T05:15:01.714Z,9.6
2022-09-17T05:16:17.941Z,8.5
2022-09-17T05:17:34.190Z,11.1
2022-09-17T05:18:50.429Z,7.6
2022-09-17T05:20:06.665Z,8.1
2022-09-17T05:21:22.901Z,7.4
2022-09-17T05:22:39.154Z,9.6
2022-09-17T05:23:55.380Z,8.7
2022-09-17T05:25:10.645Z,8.7
2022-09-17T05:26:26.892Z,10
2022-09-17T05:27:43.137Z,9.9
2022-09-17T05:28:59.368Z,10.1
2022-09-17T05:30:15.609Z,9.3
2022-09-17T05:31:31.848Z,10.6
2022-09-17T05:32:48.098Z,10.3
2022-09-17T05:34:04.322Z,8.4
2022-09-17T05:35:20.561Z,10
2022-09-17T05:36:36.801Z,9.6
2022-09-17T05:37:53.059Z,8.1
2022-09-17T05:39:09.300Z,9.9
2022-09-17T05:40:25.538Z,8.1
2022-09-17T05:42:57.029Z,8.1
2022-09-17T05:45:29.513Z,7.7
2022-09-17T05:46:45.755Z,9.2
2022-09-17T05:48:01.985Z,8
2022-09-17T05:50:34.466Z,7.5
2022-09-17T05:51:49.722Z,9.1
2022-09-17T05:53:04.988Z,9
2022-09-17T05:54:21.223Z,7.3
2022-09-17T05:55:37.464Z,7.2
2022-09-17T05:56:53.709Z,9.4
2022-09-17T05:58:09.941Z,7.7
2022-09-17T05:59:26.187Z,7.1
2022-09-17T06:00:42.428Z,8.3
2022-09-17T06:01:58.663Z,9.4
2022-09-17T06:03:14.912Z,9.8
2022-09-17T06:04:31.152Z,9.1
2022-09-17T06:05:46.404Z,8.8
2022-09-17T06:08:17.901Z,8.6
2022-09-17T06:09:34.141Z,9.9
2022-09-17T06:10:50.400Z,10
2022-09-17T06:13:22.879Z,9.6
2022-09-17T06:14:39.105Z,10.5
2022-09-17T06:15:55.359Z,10
2022-09-17T06:17:11.596Z,10.1
2022-09-17T06:18:27.822Z,8.9
2022-09-17T06:19:44.069Z,10.7
2022-09-17T06:21:00.312Z,8.7
2022-09-17T06:22:16.543Z,11.4
2022-09-17T06:23:31.805Z,10.1
2022-09-17T06:24:48.040Z,12.1
2022-09-17T06:26:04.293Z,11.3
2022-09-17T06:28:36.765Z,11.6
2022-09-17T06:29:53.017Z,10.2
2022-09-17T06:31:08.281Z,13.1
2022-09-17T06:32:23.534Z,12.5
2022-09-17T06:33:39.760Z,14.4
2022-09-17T06:34:56.006Z,12.2
2022-09-17T06:36:12.247Z,12.4
2022-09-17T06:37:28.482Z,13.4
2022-09-17T06:38:44.730Z,13.1
2022-09-17T06:40:00.959Z,15.4
2022-09-17T06:41:17.196Z,14.5
2022-09-17T06:42:33.437Z,12.8
2022-09-17T06:43:49.678Z,15.9
2022-09-17T06:45:04.953Z,12.3
2022-09-17T06:46:20.212Z,16.9
2022-09-17T06:47:36.000Z,13
2022-09-17T06:48:52.695Z,14
2022-09-17T06:50:08.927Z,17
2022-09-17T06:51:25.164Z,15.1
2022-09-17T06:52:41.408Z,13.5
2022-09-17T06:53:57.655Z,15.4
2022-09-17T06:55:13.884Z,13.1
2022-09-17T06:56:30.121Z,18.1
2022-09-17T06:57:46.359Z,15.4
2022-09-17T06:59:02.611Z,15.2
2022-09-17T07:00:18.849Z,15.6
2022-09-17T07:01:35.092Z,13.7
2022-09-17T07:02:50.341Z,14.8
2022-09-17T07:05:22.821Z,16
2022-09-17T07:06:39.062Z,13.5
2022-09-17T07:07:55.313Z,13.5
2022-09-17T07:09:11.551Z,15.1
2022-09-17T07:10:27.785Z,11.7
2022-09-17T07:11:44.017Z,12.4
2022-09-17T07:13:00.255Z,14.9
2022-09-17T07:15:32.736Z,16.1
2022-09-17T07:16:48.980Z,12.1
2022-09-17T07:18:05.225Z,13.9
2022-09-17T07:19:20.472Z,12.8
2022-09-17T07:21:52.957Z,12.9
2022-09-17T07:23:08.230Z,11.9
2022-09-17T07:24:23.474Z,11.9
2022-09-17T07:25:39.713Z,11.8
2022-09-17T07:26:55.956Z,11.9
2022-09-17T07:28:12.196Z,13
2022-09-17T07:29:28.448Z,14.2
2022-09-17T07:30:44.676Z,11.3
2022-09-17T07:32:00.931Z,12
2022-09-17T07:33:17.155Z,12.6
2022-09-17T07:37:05.876Z,10.7
2022-09-17T07:38:22.132Z,13.3
2022-09-17T07:39:37.380Z,10.6
2022-09-17T07:40:52.650Z,11.6
2022-09-17T07:42:08.878Z,12
2022-09-17T07:44:41.370Z,12.1
2022-09-17T07:45:57.607Z,12.1
2022-09-17T07:47:13.842Z,10.4
2022-09-17T07:48:30.072Z,11.7
2022-09-17T07:49:46.313Z,11.7
2022-09-17T07:51:02.557Z,12.7
2022-09-17T07:52:18.801Z,10.9
2022-09-17T07:53:35.041Z,11.2
2022-09-17T07:54:51.290Z,10.5
2022-09-17T07:56:07.527Z,9.3
2022-09-17T07:57:23.772Z,9
2022-09-17T07:58:40.012Z,9.5
2022-09-17T07:59:55.256Z,9.5
2022-09-17T08:01:11.502Z,8.4
2022-09-17T08:02:27.750Z,8.6
2022-09-17T08:03:43.985Z,8.9
2022-09-17T08:05:00.224Z,8.9
2022-09-17T08:06:16.464Z,8.9
2022-09-17T08:07:31.732Z,7.9
2022-09-17T08:08:47.961Z,8.4
2022-09-17T08:10:03.000Z,7.5
2022-09-17T08:11:19.463Z,9.3
2022-09-17T08:12:35.704Z,10
2022-09-17T08:13:51.937Z,9.6
2022-09-17T08:15:08.171Z,7.3
2022-09-17T08:16:24.422Z,8.1
2022-09-17T08:17:40.662Z,8.3
2022-09-17T08:18:56.903Z,9.6
2022-09-17T08:20:13.137Z,6.8
2022-09-17T08:21:29.380Z,7.8
2022-09-17T08:22:44.645Z,6.9
2022-09-17T08:23:59.890Z,7.8
2022-09-17T08:25:16.148Z,8.2
2022-09-17T08:26:32.382Z,9.4
2022-09-17T08:27:48.622Z,8.8
2022-09-17T08:30:21.089Z,10.1
2022-09-17T08:31:37.336Z,8.3
2022-09-17T08:32:52.611Z,10.1
2022-09-17T08:34:08.843Z,8.9
2022-09-17T08:35:25.090Z,9.5
2022-09-17T08:37:57.553Z,10.1
2022-09-17T08:39:12.826Z,8.8
2022-09-17T08:40:28.073Z,7.1
2022-09-17T08:41:44.312Z,11.3
2022-09-17T08:43:00.561Z,8.1
2022-09-17T08:45:33.043Z,8.9
2022-09-17T08:46:49.287Z,10.1
2022-09-17T08:48:05.524Z,9.8
2022-09-17T08:49:21.756Z,11.6
2022-09-17T08:50:38.006Z,10.2
2022-09-17T08:53:10.482Z,9.7
2022-09-17T08:54:26.724Z,10.5
2022-09-17T08:55:41.993Z,8.9
2022-09-17T08:56:58.220Z,9.4
2022-09-17T08:58:13.487Z,8.5
2022-09-17T09:00:45.957Z,9.4
2022-09-17T09:02:02.208Z,9.4
2022-09-17T09:03:18.431Z,8.7
2022-09-17T09:04:34.677Z,8.5
2022-09-17T09:05:50.919Z,7
2022-09-17T09:08:23.398Z,8.1
2022-09-17T09:09:39.631Z,7.7
2022-09-17T09:10:55.889Z,8.1
2022-09-17T09:12:12.115Z,8.9
2022-09-17T09:13:28.355Z,10.2
2022-09-17T09:15:59.864Z,8.1
2022-09-17T09:17:16.099Z,7.8
2022-09-17T09:18:32.335Z,8.5
2022-09-17T09:19:48.582Z,9.3
2022-09-17T09:21:04.823Z,10.3
2022-09-17T09:22:21.065Z,9.5
2022-09-17T09:23:37.307Z,9
2022-09-17T09:24:53.532Z,9.1
2022-09-17T09:26:09.769Z,8.9
2022-09-17T09:27:26.029Z,7.3
2022-09-17T09:28:42.254Z,7.5
2022-09-17T09:29:58.491Z,8.5
2022-09-17T09:31:14.731Z,9.8
2022-09-17T09:32:29.988Z,8.5
2022-09-17T09:33:46.241Z,7.9
2022-09-17T09:35:01.507Z,8.4
2022-09-17T09:36:16.752Z,10.1
2022-09-17T09:37:32.994Z,7.9
2022-09-17T09:38:49.229Z,8.9
2022-09-17T09:41:21.720Z,8.9
2022-09-17T09:42:37.959Z,10.2
2022-09-17T09:43:54.203Z,10.9
2022-09-17T09:45:10.436Z,7.6
2022-09-17T09:46:26.673Z,9
2022-09-17T09:47:42.917Z,9.1
2022-09-17T09:48:59.162Z,9.6
2022-09-17T09:50:15.392Z,9.2
2022-09-17T09:51:31.632Z,9.1
2022-09-17T09:52:46.899Z,10.7
2022-09-17T09:54:03.127Z,9
2022-09-17T09:55:19.360Z,9
2022-09-17T09:56:35.612Z,10.1
2022-09-17T09:57:51.857Z,8.9
2022-09-17T09:59:08.086Z,9.7
2022-09-17T10:00:24.327Z,9.1
2022-09-17T10:01:40.570Z,9.7
2022-09-17T10:02:55.833Z,8.7
2022-09-17T10:04:11.080Z,8.1
2022-09-17T10:05:27.333Z,10.6
2022-09-17T10:06:43.563Z,8.1
2022-09-17T10:09:16.048Z,11
2022-09-17T10:10:32.289Z,10.6
2022-09-17T10:11:48.525Z,9.7
2022-09-17T10:13:04.765Z,10.2
2022-09-17T10:14:21.018Z,11.9
2022-09-17T10:15:37.250Z,8.7
2022-09-17T10:16:53.482Z,10.2
2022-09-17T10:18:09.733Z,8.9
2022-09-17T10:19:25.963Z,9.2
2022-09-17T10:20:41.227Z,8.5
2022-09-17T10:21:57.476Z,11.3
2022-09-17T10:23:13.696Z,9.3
2022-09-17T10:25:46.191Z,8.2
2022-09-17T10:27:01.447Z,8.6
2022-09-17T10:28:16.695Z,10.8
2022-09-17T10:29:32.951Z,9.2
2022-09-17T10:30:49.184Z,9.3
2022-09-17T10:32:05.420Z,9
2022-09-17T10:33:21.665Z,8.8
2022-09-17T10:34:37.911Z,9.9
2022-09-17T10:35:54.152Z,8.9
2022-09-17T10:37:10.387Z,8.7
2022-09-17T10:38:26.625Z,10.7
2022-09-17T10:39:42.866Z,7.7
2022-09-17T10:40:59.114Z,8.9
2022-09-17T10:42:14.374Z,9.1
2022-09-17T10:44:45.854Z,10.1
2022-09-17T10:46:02.107Z,6.3
2022-09-17T10:47:18.349Z,8.5
2022-09-17T10:48:34.570Z,9.5
2022-09-17T10:49:50.829Z,7.9
2022-09-17T10:51:07.051Z,7.3
2022-09-17T10:52:23.306Z,7.5
2022-09-17T10:53:39.538Z,7.6
2022-09-17T10:54:55.779Z,8.2
2022-09-17T10:56:12.017Z,7.5
2022-09-17T10:57:28.253Z,8.6
2022-09-17T11:00:00.740Z,7.5
2022-09-17T11:01:15.993Z,8
2022-09-17T11:02:32.228Z,10.3
2022-09-17T11:03:48.472Z,7.8
2022-09-17T11:05:04.711Z,9.7
2022-09-17T11:06:20.960Z,7.5
2022-09-17T11:07:37.197Z,7
2022-09-17T11:08:53.427Z,8.8
2022-09-17T11:10:09.679Z,9
2022-09-17T11:11:25.928Z,7.7
2022-09-17T11:12:42.163Z,6.8
2022-09-17T11:13:58.401Z,7.8
2022-09-17T11:15:14.631Z,6.7
2022-09-17T11:16:30.868Z,7.7
2022-09-17T11:17:46.138Z,8
2022-09-17T11:19:02.377Z,8.3
2022-09-17T11:20:18.619Z,8.7
2022-09-17T11:21:34.851Z,6.3
2022-09-17T11:22:51.094Z,7.6
2022-09-17T11:24:07.328Z,7.7
2022-09-17T11:25:23.564Z,6.7
2022-09-17T11:26:39.807Z,9
2022-09-17T11:27:56.050Z,6.7
2022-09-17T11:29:12.302Z,6.5
2022-09-17T11:30:28.541Z,7.1
2022-09-17T11:31:44.779Z,7.6
2022-09-17T11:33:01.013Z,7.2
2022-09-17T11:34:16.277Z,8.4
2022-09-17T11:35:32.000Z,8.6
2022-09-17T11:36:48.758Z,7.8
2022-09-17T11:38:04.996Z,7.8
2022-09-17T11:39:21.224Z,7.1
2022-09-17T11:40:37.466Z,7.6
2022-09-17T11:41:53.723Z,9
2022-09-17T11:43:09.953Z,9.5
2022-09-17T11:44:26.185Z,8.5
2022-09-17T11:45:42.427Z,9.2
2022-09-17T11:46:58.669Z,6.3
2022-09-17T11:48:14.921Z,8.6
2022-09-17T11:49:31.162Z,6.8
2022-09-17T11:50:47.398Z,7.3
2022-09-17T11:52:02.643Z,10.6
2022-09-17T11:53:18.887Z,5.9
2022-09-17T11:54:35.140Z,8.2
2022-09-17T11:55:51.373Z,6.1
2022-09-17T11:57:07.611Z,7.7
2022-09-17T11:58:23.843Z,7.4
2022-09-17T11:59:40.085Z,6.6
2022-09-17T12:00:56.335Z,6
2022-09-17T12:03:28.822Z,8.1
2022-09-17T12:04:45.058Z,5.3
2022-09-17T12:06:01.289Z,6.7
2022-09-17T12:07:17.520Z,6.8
2022-09-17T12:08:32.795Z,7.3
2022-09-17T12:09:49.022Z,7.5
2022-09-17T12:11:05.266Z,8.6
2022-09-17T12:12:21.513Z,6.5
2022-09-17T12:13:37.738Z,6.9
2022-09-17T12:14:53.979Z,8
2022-09-17T12:16:10.219Z,9.8
2022-09-17T12:18:42.698Z,8
2022-09-17T12:19:58.953Z,8.1
2022-09-17T12:21:15.193Z,7.7
2022-09-17T12:22:31.418Z,8.3
2022-09-17T12:23:47.660Z,9.2
2022-09-17T12:25:02.927Z,7.4
2022-09-17T12:26:19.163Z,7.9
2022-09-17T12:27:35.397Z,8.5
2022-09-17T12:28:51.655Z,8.4
2022-09-17T12:30:07.890Z,8.3
2022-09-17T12:31:24.120Z,9
2022-09-17T12:32:40.374Z,8.5
2022-09-17T12:33:56.613Z,9.9
2022-09-17T12:35:12.852Z,9.2
2022-09-17T12:36:29.081Z,7.3
2022-09-17T12:37:45.331Z,8.3
2022-09-17T12:39:01.568Z,9
2022-09-17T12:41:34.039Z,7.8
2022-09-17T12:42:49.311Z,9
2022-09-17T12:44:05.548Z,7.5
2022-09-17T12:45:21.778Z,7.3
2022-09-17T12:46:38.019Z,9.2
2022-09-17T12:47:54.266Z,7.8
2022-09-17T12:49:09.533Z,7.6
2022-09-17T12:50:25.758Z,7.7
2022-09-17T12:51:42.010Z,10
2022-09-17T12:52:58.242Z,8.6
2022-09-17T12:54:14.489Z,9.9
2022-09-17T12:55:30.728Z,6.9
2022-09-17T12:56:46.959Z,9.8
2022-09-17T12:58:03.205Z,7.5
2022-09-17T12:59:19.453Z,7.3
2022-09-17T13:00:35.686Z,8.6
2022-09-17T13:01:51.919Z,7.9
2022-09-17T13:04:24.403Z,8.6
2022-09-17T13:05:39.658Z,8.7
2022-09-17T13:06:55.893Z,10.4
2022-09-17T13:08:12.137Z,8.8
2022-09-17T13:09:28.390Z,9.2
2022-09-17T13:10:44.633Z,7.6
2022-09-17T13:12:00.864Z,8
2022-09-17T13:13:17.102Z,9.3
2022-09-17T13:14:33.334Z,9.1
2022-09-17T13:15:49.593Z,7.1
2022-09-17T13:17:05.818Z,9.4
2022-09-17T13:18:22.056Z,6.8
2022-09-17T13:19:38.303Z,7.6
2022-09-17T13:22:10.789Z,8
2022-09-17T13:23:27.014Z,9.1
2022-09-17T13:24:42.273Z,8.2
2022-09-17T13:25:58.526Z,8.5
2022-09-17T13:27:14.750Z,7.8
2022-09-17T13:28:31.009Z,7.3
2022-09-17T13:29:47.248Z,7.1
2022-09-17T13:31:03.475Z,8.5
2022-09-17T13:32:19.719Z,8.3
2022-09-17T13:33:35.957Z,7.4
2022-09-17T13:34:52.192Z,10.9
2022-09-17T13:36:08.440Z,8.3
2022-09-17T13:37:24.674Z,8.2
2022-09-17T13:38:40.913Z,6.5
2022-09-17T13:39:57.169Z,7.5
2022-09-17T13:41:12.416Z,4.9
2022-09-17T13:42:28.651Z,5.2
2022-09-17T13:43:44.908Z,5.9
2022-09-17T13:45:01.142Z,6.6
2022-09-17T13:46:17.368Z,5.8
2022-09-17T13:47:33.626Z,5.6
2022-09-17T13:50:06.092Z,5.2
2022-09-17T13:51:22.328Z,6.3
2022-09-17T13:52:38.576Z,5.4
2022-09-17T13:53:54.817Z,5.9
2022-09-17T13:55:11.061Z,5.4
2022-09-17T13:57:43.542Z,5.1
2022-09-17T13:58:58.805Z,7
2022-09-17T14:00:15.043Z,6.4
2022-09-17T14:01:31.284Z,7.7
2022-09-17T14:02:47.508Z,6.3
2022-09-17T14:05:20.006Z,7.4
2022-09-17T14:06:35.266Z,8
2022-09-17T14:07:50.508Z,11
2022-09-17T14:09:06.762Z,8
2022-09-17T14:10:22.993Z,8.8
2022-09-17T14:11:39.242Z,7.9
2022-09-17T14:12:55.473Z,15.8
2022-09-17T14:14:11.710Z,19.5
2022-09-17T14:15:27.955Z,19.5
2022-09-17T14:18:00.435Z,18
2022-09-17T14:20:32.914Z,12.9
2022-09-17T14:21:49.146Z,14.9
2022-09-17T14:23:04.413Z,15.1
2022-09-17T14:24:19.665Z,12.7
2022-09-17T14:25:35.918Z,14.1
2022-09-17T14:26:52.142Z,11.6
2022-09-17T14:28:08.391Z,13.4
2022-09-17T14:29:24.634Z,11.7
2022-09-17T14:30:40.873Z,10.1
2022-09-17T14:31:57.105Z,10.7
2022-09-17T14:33:13.352Z,11
2022-09-17T14:34:29.585Z,11.9
2022-09-17T14:35:45.830Z,10.6
2022-09-17T14:37:01.100Z,10.6
2022-09-17T14:38:17.338Z,10.5
2022-09-17T14:39:32.591Z,11.1
2022-09-17T14:40:48.821Z,11.6
2022-09-17T14:43:21.300Z,12.1
2022-09-17T14:44:37.550Z,10.7
2022-09-17T14:45:53.790Z,10.4
2022-09-17T14:48:26.264Z,8.8
2022-09-17T14:50:58.742Z,8.8
2022-09-17T14:52:14.986Z,9.2
2022-09-17T14:53:31.222Z,9.9
2022-09-17T14:54:46.492Z,9.9
2022-09-17T14:56:02.725Z,8.3
2022-09-17T14:58:35.203Z,11.4
2022-09-17T14:59:50.462Z,9.4
2022-09-17T15:01:06.704Z,9.2
2022-09-17T15:02:22.948Z,9.8
2022-09-17T15:03:39.194Z,9.5
2022-09-17T15:04:55.425Z,7.8
2022-09-17T15:06:11.657Z,9.5
2022-09-17T15:07:27.911Z,10.2
2022-09-17T15:08:44.147Z,7.8
2022-09-17T15:10:00.382Z,8
2022-09-17T15:11:16.631Z,8.9
2022-09-17T15:12:32.860Z,9
2022-09-17T15:13:49.096Z,9
2022-09-17T15:16:21.593Z,7.1
2022-09-17T15:17:36.846Z,8.1
2022-09-17T15:18:53.090Z,8.5
2022-09-17T15:20:09.333Z,7.5
2022-09-17T15:21:25.566Z,6.7
2022-09-17T15:22:41.805Z,8.4
2022-09-17T15:23:58.044Z,6.9
2022-09-17T15:25:13.308Z,7.7
2022-09-17T15:26:28.560Z,7.2
2022-09-17T15:27:44.794Z,7.9
2022-09-17T15:29:01.044Z,7.2
2022-09-17T15:30:17.272Z,7
2022-09-17T15:31:33.519Z,6.5
2022-09-17T15:34:06.006Z,7
2022-09-17T15:35:22.249Z,6.6
2022-09-17T15:36:38.484Z,6.2
2022-09-17T15:37:54.731Z,6.1
2022-09-17T15:39:10.968Z,6.7
2022-09-17T15:40:27.203Z,6.5
2022-09-17T15:41:43.432Z,5.8
2022-09-17T15:42:58.692Z,6.8
2022-09-17T15:44:14.939Z,7.9
2022-09-17T15:45:31.175Z,7.4
2022-09-17T15:46:47.418Z,6.4
2022-09-17T15:48:03.663Z,8.3
2022-09-17T15:49:19.906Z,5.8
2022-09-17T15:50:36.135Z,6.6
2022-09-17T15:51:52.379Z,6.4
2022-09-17T15:53:08.628Z,7.6
2022-09-17T15:54:23.875Z,6
2022-09-17T15:55:39.140Z,6.5
2022-09-17T15:56:55.385Z,6.4
2022-09-17T15:59:27.853Z,5.1
2022-09-17T16:00:44.089Z,7.1
2022-09-17T16:02:00.329Z,6.9
2022-09-17T16:03:16.566Z,7.3
2022-09-17T16:04:32.821Z,7.2
2022-09-17T16:05:49.063Z,8.3
2022-09-17T16:07:05.287Z,5.9
2022-09-17T16:08:21.546Z,7.3
2022-09-17T16:09:37.784Z,6.6
2022-09-17T16:10:54.020Z,5.7
2022-09-17T16:12:10.250Z,7.2
2022-09-17T16:13:26.496Z,5.9
2022-09-17T16:14:41.757Z,7
2022-09-17T16:15:57.985Z,8.7
2022-09-17T16:17:14.227Z,6
2022-09-17T16:18:30.468Z,8
2022-09-17T16:19:46.705Z,8.4
2022-09-17T16:21:02.952Z,7.1
2022-09-17T16:22:19.183Z,6
2022-09-17T16:23:35.439Z,4
2022-09-17T16:24:51.676Z,5.4
2022-09-17T16:26:07.923Z,6.6
2022-09-17T16:27:24.145Z,6.2
2022-09-17T16:28:40.394Z,5.5
2022-09-17T16:29:56.638Z,6.7
2022-09-17T16:31:11.890Z,6.1
2022-09-17T16:32:28.133Z,7
2022-09-17T16:33:44.363Z,6.4
2022-09-17T16:35:00.617Z,5.6
2022-09-17T16:36:16.845Z,6.3
2022-09-17T16:37:33.081Z,8
2022-09-17T16:38:49.333Z,6.2
2022-09-17T16:40:05.579Z,7.1
2022-09-17T16:41:21.803Z,7
2022-09-17T16:42:38.056Z,5.8
2022-09-17T16:43:54.292Z,5.7
2022-09-17T16:45:10.531Z,6.8
2022-09-17T16:46:26.774Z,5.1
2022-09-17T16:47:42.029Z,5.8
2022-09-17T16:48:58.255Z,5.6
2022-09-17T16:50:14.510Z,6.6
2022-09-17T16:52:46.995Z,5.9
2022-09-17T16:54:03.229Z,10.3
2022-09-17T16:55:19.473Z,9.2
2022-09-17T16:56:35.699Z,6.8
2022-09-17T16:57:51.943Z,13.1
2022-09-17T16:59:08.184Z,6.7
2022-09-17T17:00:24.436Z,11.9
2022-09-17T17:01:40.663Z,5.2
2022-09-17T17:02:56.912Z,5.2
2022-09-17T17:04:12.165Z,6.4
2022-09-17T17:05:28.403Z,13.5
2022-09-17T17:06:44.645Z,22.7
2022-09-17T17:08:00.889Z,17.3
2022-09-17T17:09:17.129Z,30
2022-09-17T17:11:49.600Z,8.9
2022-09-17T17:13:05.856Z,10.5
2022-09-17T17:15:38.339Z,13.7
2022-09-17T17:16:53.584Z,12.9
2022-09-17T17:18:08.836Z,18.2
2022-09-17T17:19:25.085Z,8.8
2022-09-17T17:20:41.332Z,32.2
2022-09-17T17:21:57.568Z,33.7
2022-09-17T17:23:13.801Z,14.9
2022-09-17T17:24:30.055Z,11.9
2022-09-17T17:25:46.280Z,40.4
2022-09-17T17:27:02.520Z,22.4
2022-09-17T17:28:18.768Z,10
2022-09-17T17:30:51.237Z,17.3
2022-09-17T17:33:23.729Z,13.7
2022-09-17T17:34:38.987Z,43.6
2022-09-17T17:35:55.223Z,12.1
2022-09-17T17:38:26.717Z,7.8
2022-09-17T17:39:42.974Z,9.7
2022-09-17T17:40:59.204Z,9.2
2022-09-17T17:43:31.687Z,8.8
2022-09-17T17:44:47.931Z,9.4
2022-09-17T17:46:04.170Z,12.3
2022-09-17T17:47:20.405Z,11.4
2022-09-17T17:48:36.694Z,9.4
2022-09-17T17:51:09.289Z,7.9
2022-09-17T17:52:25.575Z,7.8
2022-09-17T17:53:41.870Z,8.2
2022-09-17T17:54:58.168Z,8.8
2022-09-17T17:56:13.475Z,8
2022-09-17T17:58:46.070Z,7.9
2022-09-17T18:01:18.659Z,9.3
2022-09-17T18:02:34.962Z,8
2022-09-17T18:03:51.238Z,11.5
2022-09-17T18:06:23.847Z,8.4
2022-09-17T18:08:56.436Z,9.1
2022-09-17T18:10:12.725Z,8.7
2022-09-17T18:11:29.015Z,7.5
2022-09-17T18:14:00.626Z,7.8
2022-09-17T18:16:33.203Z,9.6
2022-09-17T18:17:49.501Z,8.8
2022-09-17T18:19:05.791Z,9.1
2022-09-17T18:20:22.098Z,7.7
2022-09-17T18:21:38.376Z,8.6
2022-09-17T18:22:54.684Z,10.6
2022-09-17T18:24:10.977Z,9.3
2022-09-17T18:25:27.265Z,8.1
2022-09-17T18:26:43.570Z,9.4
2022-09-17T18:27:59.871Z,8
2022-09-17T18:29:15.163Z,7.1
2022-09-17T18:30:31.458Z,6.7
2022-09-17T18:31:47.752Z,8.5
2022-09-17T18:33:04.056Z,7.2
2022-09-17T18:34:20.340Z,7.7
2022-09-17T18:36:52.942Z,6.2
2022-09-17T18:38:09.242Z,7.7
2022-09-17T18:39:25.519Z,5.7
2022-09-17T18:40:41.821Z,6.3
2022-09-17T18:41:58.106Z,7.3
2022-09-17T18:43:14.407Z,5.7
2022-09-17T18:44:30.697Z,6.7
2022-09-17T18:45:47.003Z,7.8
2022-09-17T18:47:02.318Z,6.9
2022-09-17T18:48:17.620Z,5.8
2022-09-17T18:49:33.921Z,6.7
2022-09-17T18:52:06.503Z,7.5
2022-09-17T18:53:22.800Z,5.5
2022-09-17T18:54:39.091Z,5.6
2022-09-17T18:55:55.399Z,6.8
2022-09-17T18:57:11.681Z,4.9